Weather at Futuna Airport

Public forecast

Using degrees Celsius for public forecast. Weather courtesy of forecast.io.

Closest aviation weather report (METAR) to Futuna Airport

Report is more than 6 hours old.

Closest report is Aneityum Airport, 51.1 nm (94.7 km) SSW. Retrieved 2022/09/17 09:00 UTC (13 days ago):

NVVA 170900Z 09010KT 9999 FEW025 23/19 Q1018

Closest aviation forecast (TAF) to Futuna Airport

Forecast is more than 12 hours old.

Closest forecast is Aneityum Airport, 51.1 nm (94.7 km) SSW. Retrieved 2022/09/17 18:55 UTC (12 days ago):

TAF NVVA 171700Z 1718/1818 09010KT 9999 SCT020